Time;durP1;ratioP1;P1;durP2;ratioP2;P2;SDS_P1;SDS_P2;PMS_P1;PMS_P2;Temp;Humidity;BMP_temperature;BMP_pressure;BME280_temperature;BME280_humidity;BME280_pressure;Samples;Min_cycle;Max_cycle;Signal;HPM_P1;HPM_P2
2023/03/20 00:00:20;;;;;;;17.13;10.18;;;9.70;99.90;;;;;;5031524;28;20479;-76
2023/03/20 00:02:46;;;;;;;16.27;10.23;;;9.70;99.90;;;;;;5015693;28;20037;-77
2023/03/20 00:05:17;;;;;;;14.55;10.00;;;9.60;99.90;;;;;;5032361;28;20026;-77
2023/03/20 00:07:44;;;;;;;17.58;10.43;;;9.70;99.90;;;;;;5031055;28;20034;-76
2023/03/20 00:10:11;;;;;;;17.83;10.65;;;9.60;99.90;;;;;;5032057;28;20033;-77
2023/03/20 00:12:37;;;;;;;17.00;10.25;;;9.50;99.90;;;;;;5022576;28;20391;-77
2023/03/20 00:15:07;;;;;;;15.23;10.45;;;9.50;99.90;;;;;;5010862;28;20034;-76
2023/03/20 00:17:33;;;;;;;14.40;10.43;;;9.60;99.90;;;;;;5027196;28;20030;-77
2023/03/20 00:19:59;;;;;;;16.30;10.38;;;9.60;99.90;;;;;;5012433;28;20030;-76
2023/03/20 00:22:25;;;;;;;16.92;10.30;;;9.60;99.90;;;;;;5012274;28;20395;-77
2023/03/20 00:24:53;;;;;;;16.48;10.63;;;9.60;99.90;;;;;;5013250;28;20050;-77
2023/03/20 00:27:19;;;;;;;19.85;12.10;;;9.60;99.90;;;;;;5033810;28;20041;-77
2023/03/20 00:29:45;;;;;;;14.55;10.48;;;9.60;99.90;;;;;;5035967;28;20028;-76
2023/03/20 00:32:11;;;;;;;17.85;10.73;;;9.60;99.90;;;;;;5035182;28;20040;-76
2023/03/20 00:34:38;;;;;;;18.27;11.45;;;9.70;99.90;;;;;;5034660;28;20036;-76
2023/03/20 00:37:04;;;;;;;18.73;11.00;;;9.70;99.90;;;;;;5035843;28;20034;-76
2023/03/20 00:39:30;;;;;;;14.68;11.25;;;9.60;99.90;;;;;;5036039;28;20033;-76
2023/03/20 00:41:59;;;;;;;15.65;10.95;;;9.60;99.90;;;;;;5034366;28;20053;-76
2023/03/20 00:44:31;;;;;;;19.17;11.52;;;9.60;99.90;;;;;;5034699;28;20036;-75
2023/03/20 00:46:59;;;;;;;17.35;10.38;;;9.70;99.90;;;;;;5033834;28;20045;-75
2023/03/20 00:49:32;;;;;;;19.20;11.07;;;9.60;99.90;;;;;;5017952;28;20042;-76
2023/03/20 00:52:00;;;;;;;17.50;10.38;;;9.60;99.90;;;;;;5034363;28;20375;-76
2023/03/20 00:54:26;;;;;;;17.25;10.93;;;9.70;99.90;;;;;;5035824;28;20033;-76
2023/03/20 00:56:58;;;;;;;17.02;10.50;;;9.70;99.90;;;;;;5035626;28;20036;-76
2023/03/20 00:59:26;;;;;;;20.30;10.95;;;9.70;99.90;;;;;;5034955;28;20074;-75
2023/03/20 01:01:52;;;;;;;17.38;10.07;;;9.80;99.90;;;;;;5033196;28;20049;-75
2023/03/20 01:04:18;;;;;;;15.32;9.38;;;9.80;99.90;;;;;;5035507;28;20021;-75
2023/03/20 01:06:46;;;;;;;15.90;9.82;;;9.80;99.90;;;;;;5034332;28;20052;-76
2023/03/20 01:09:12;;;;;;;18.35;9.77;;;9.70;99.90;;;;;;5017661;28;20029;-76
2023/03/20 01:11:38;;;;;;;17.83;9.35;;;9.80;99.90;;;;;;5016029;28;20359;-76
2023/03/20 01:14:05;;;;;;;18.90;9.48;;;9.80;99.90;;;;;;5015063;28;20033;-76
2023/03/20 01:16:31;;;;;;;16.17;9.20;;;9.80;99.90;;;;;;5030294;28;20036;-76
2023/03/20 01:18:57;;;;;;;13.25;8.80;;;9.80;99.90;;;;;;5013989;28;20033;-76
2023/03/20 01:21:24;;;;;;;15.18;7.47;;;9.90;99.90;;;;;;5014940;28;20390;-76
2023/03/20 01:23:50;;;;;;;15.25;7.50;;;9.90;99.90;;;;;;5014765;28;20486;-76
2023/03/20 01:26:31;;;;;;;14.40;7.38;;;9.90;99.90;;;;;;5024863;28;20049;-75
2023/03/20 01:28:57;;;;;;;12.50;7.07;;;10.00;99.90;;;;;;5033299;28;20017;-76
2023/03/20 01:31:23;;;;;;;12.50;7.03;;;10.00;99.90;;;;;;5034446;28;20509;-75
2023/03/20 01:33:49;;;;;;;16.73;7.85;;;10.00;99.90;;;;;;5034605;28;20029;-76
2023/03/20 01:36:19;;;;;;;12.23;7.22;;;10.00;99.90;;;;;;5033804;28;20040;-76
2023/03/20 01:38:45;;;;;;;18.73;7.20;;;10.00;99.90;;;;;;5017271;28;20041;-76
2023/03/20 01:41:20;;;;;;;12.80;7.38;;;10.10;99.90;;;;;;5016992;28;20037;-76
2023/03/20 01:43:46;;;;;;;12.68;7.68;;;10.00;99.90;;;;;;5032933;28;20038;-76
2023/03/20 01:46:18;;;;;;;11.43;6.93;;;10.00;99.90;;;;;;5034032;28;20037;-76
2023/03/20 01:48:50;;;;;;;13.73;7.43;;;10.00;99.90;;;;;;5034643;28;20034;-76
2023/03/20 01:51:26;;;;;;;13.55;8.13;;;10.00;99.90;;;;;;5034374;28;20052;-76
2023/03/20 01:54:10;;;;;;;12.70;7.97;;;10.00;99.90;;;;;;5033078;28;20044;-76
2023/03/20 01:56:40;;;;;;;13.75;8.82;;;10.10;99.90;;;;;;5033216;28;20032;-76
2023/03/20 01:59:16;;;;;;;11.63;8.15;;;10.00;99.90;;;;;;5032666;28;20033;-76
2023/03/20 02:01:42;;;;;;;15.13;8.73;;;10.00;99.90;;;;;;5016979;28;20053;-76
2023/03/20 02:04:08;;;;;;;13.25;8.25;;;10.00;99.90;;;;;;5032974;28;20037;-76
2023/03/20 02:06:34;;;;;;;13.43;7.63;;;10.10;99.90;;;;;;5034203;28;20041;-76
2023/03/20 02:09:00;;;;;;;14.40;8.35;;;10.10;99.90;;;;;;5032788;28;20041;-76
2023/03/20 02:11:27;;;;;;;13.85;8.02;;;10.10;99.90;;;;;;5032649;28;20029;-76
2023/03/20 02:13:54;;;;;;;13.15;8.13;;;10.10;99.90;;;;;;4993179;28;20031;-76
2023/03/20 02:16:20;;;;;;;17.52;8.32;;;10.10;99.90;;;;;;4992925;28;20479;-76
2023/03/20 02:18:47;;;;;;;12.55;7.60;;;10.10;99.90;;;;;;4993068;28;20035;-76
2023/03/20 02:21:30;;;;;;;17.63;7.90;;;10.10;99.90;;;;;;5009461;28;20050;-75
2023/03/20 02:24:26;;;;;;;17.35;7.80;;;10.10;99.90;;;;;;5007634;28;20041;-76
2023/03/20 02:26:55;;;;;;;14.07;7.45;;;10.10;99.90;;;;;;5027826;28;20042;-75
2023/03/20 02:29:38;;;;;;;13.82;7.78;;;10.00;99.90;;;;;;5033712;28;20057;-75
2023/03/20 02:32:16;;;;;;;15.07;7.55;;;10.00;99.90;;;;;;5017001;28;20052;-76
2023/03/20 02:35:04;;;;;;;19.95;7.95;;;10.00;99.90;;;;;;5034094;28;20398;-75
2023/03/20 02:38:00;;;;;;;12.15;7.97;;;10.00;99.90;;;;;;5033609;28;20028;-76
2023/03/20 02:40:48;;;;;;;15.07;7.70;;;10.00;99.90;;;;;;5033551;28;20031;-76
2023/03/20 02:43:17;;;;;;;18.75;7.82;;;10.00;99.90;;;;;;5033035;28;20044;-75
2023/03/20 02:45:58;;;;;;;13.18;7.43;;;9.90;99.90;;;;;;5031936;28;20032;-76
2023/03/20 02:48:31;;;;;;;15.43;7.88;;;9.90;99.90;;;;;;5015677;28;20030;-75
2023/03/20 02:51:01;;;;;;;18.90;7.85;;;10.00;99.90;;;;;;5032315;28;20032;-76
2023/03/20 02:53:33;;;;;;;19.58;7.57;;;10.00;99.90;;;;;;5033119;28;20029;-76
2023/03/20 02:56:16;;;;;;;11.40;6.72;;;10.00;99.90;;;;;;5031737;28;20025;-76
2023/03/20 02:59:01;;;;;;;15.65;7.22;;;10.00;99.90;;;;;;5016485;28;20407;-76
2023/03/20 03:01:34;;;;;;;17.02;7.38;;;10.10;99.90;;;;;;5031396;28;20394;-76
2023/03/20 03:04:16;;;;;;;16.75;7.03;;;10.10;99.90;;;;;;5016054;28;20026;-76
2023/03/20 03:06:42;;;;;;;;;;;10.10;99.90;;;;;;5032212;28;20037;-76
2023/03/20 03:09:27;;;;;;;15.98;6.70;;;10.10;99.90;;;;;;5031642;28;20354;-77
2023/03/20 03:12:02;;;;;;;14.63;6.82;;;10.10;99.90;;;;;;5024437;28;20018;-76
2023/03/20 03:14:35;;;;;;;14.13;6.72;;;10.10;99.90;;;;;;5007127;28;20034;-76
2023/03/20 03:17:02;;;;;;;9.85;6.38;;;10.10;99.90;;;;;;5021100;28;20081;-76
2023/03/20 03:19:28;;;;;;;13.43;6.38;;;10.10;99.90;;;;;;4981662;28;20038;-76
2023/03/20 03:21:54;;;;;;;19.90;7.18;;;10.10;99.90;;;;;;5005735;28;20049;-76
2023/03/20 03:24:28;;;;;;;21.30;6.75;;;10.20;99.90;;;;;;5022974;28;20401;-76
2023/03/20 03:26:58;;;;;;;15.32;6.63;;;10.20;99.90;;;;;;5019408;28;20026;-76
2023/03/20 03:29:26;;;;;;;16.73;6.47;;;10.20;99.90;;;;;;5011964;28;20442;-76
2023/03/20 03:31:53;;;;;;;13.45;6.70;;;10.20;99.90;;;;;;5029849;28;20041;-76
2023/03/20 03:34:19;;;;;;;16.85;7.10;;;10.20;99.90;;;;;;5031393;28;20025;-76
2023/03/20 03:37:09;;;;;;;15.48;6.70;;;10.20;99.90;;;;;;5014882;28;20040;-76
2023/03/20 03:39:40;;;;;;;23.03;6.30;;;10.20;99.90;;;;;;5018642;28;20032;-76
2023/03/20 03:42:19;;;;;;;16.95;6.65;;;10.20;99.90;;;;;;5012853;28;20399;-76
2023/03/20 03:44:58;;;;;;;21.52;6.93;;;10.20;99.90;;;;;;5012718;28;20025;-76
2023/03/20 03:47:36;;;;;;;18.60;6.55;;;10.10;99.90;;;;;;5011066;28;20038;-76
2023/03/20 03:50:07;;;;;;;18.15;7.13;;;10.10;99.90;;;;;;5011421;28;20018;-76
2023/03/20 03:52:33;;;;;;;18.85;7.13;;;10.10;99.90;;;;;;5011481;28;20026;-75
2023/03/20 03:55:04;;;;;;;21.02;6.55;;;10.10;99.90;;;;;;5011152;28;20482;-76
2023/03/20 03:57:35;;;;;;;15.85;7.50;;;10.10;99.90;;;;;;5030393;28;20029;-76
2023/03/20 04:00:04;;;;;;;16.55;6.85;;;10.20;99.90;;;;;;5014143;28;20025;-76
2023/03/20 04:02:31;;;;;;;18.92;6.80;;;10.10;99.90;;;;;;5014058;28;20041;-76
2023/03/20 04:04:57;;;;;;;14.65;6.35;;;10.20;99.90;;;;;;5031066;28;20033;-76
2023/03/20 04:07:26;;;;;;;20.35;7.13;;;10.20;99.90;;;;;;5014597;28;20033;-75
2023/03/20 04:09:52;;;;;;;21.90;7.00;;;10.20;99.90;;;;;;5014574;28;20053;-76
2023/03/20 04:12:28;;;;;;;15.30;7.10;;;10.20;99.90;;;;;;5025020;28;20018;-76
2023/03/20 04:14:54;;;;;;;18.55;6.43;;;10.30;99.90;;;;;;5012394;28;20037;-76
2023/03/20 04:17:20;;;;;;;17.88;7.18;;;10.20;99.90;;;;;;5011773;28;20270;-76
2023/03/20 04:19:46;;;;;;;14.88;6.57;;;10.20;99.90;;;;;;5011325;28;20026;-76
2023/03/20 04:22:12;;;;;;;16.75;6.85;;;10.20;99.90;;;;;;5010661;28;20057;-76
2023/03/20 04:24:38;;;;;;;18.98;6.45;;;10.20;99.90;;;;;;5011990;28;20038;-76
2023/03/20 04:27:04;;;;;;;13.07;6.38;;;10.30;99.90;;;;;;5011063;28;20516;-76
2023/03/20 04:29:31;;;;;;;12.05;6.68;;;10.20;99.90;;;;;;5014171;28;20037;-76
2023/03/20 04:31:57;;;;;;;17.80;6.70;;;10.20;99.90;;;;;;5030290;28;20033;-76
2023/03/20 04:34:23;;;;;;;16.38;6.75;;;10.20;99.90;;;;;;5030623;28;20022;-76
2023/03/20 04:36:50;;;;;;;23.15;7.15;;;10.20;99.90;;;;;;5031781;28;20382;-76
2023/03/20 04:39:16;;;;;;;17.15;6.40;;;10.20;99.90;;;;;;5032351;28;20060;-76
2023/03/20 04:41:42;;;;;;;14.57;6.78;;;10.20;99.90;;;;;;5032122;28;20390;-76
2023/03/20 04:44:08;;;;;;;19.33;7.70;;;10.20;99.90;;;;;;5030729;28;20025;-76
2023/03/20 04:46:34;;;;;;;15.68;6.82;;;10.30;99.90;;;;;;5031413;28;20049;-76
2023/03/20 04:49:00;;;;;;;18.73;6.53;;;10.20;99.90;;;;;;5031807;28;20144;-76
2023/03/20 04:51:27;;;;;;;17.83;6.70;;;10.10;99.90;;;;;;5031547;28;20033;-76
2023/03/20 04:53:53;;;;;;;16.10;6.95;;;10.20;99.90;;;;;;5030708;28;20053;-76
2023/03/20 04:56:19;;;;;;;18.05;6.60;;;10.20;99.90;;;;;;5032135;28;20478;-76
2023/03/20 04:58:45;;;;;;;22.85;6.60;;;10.20;99.90;;;;;;5030184;28;20049;-76
2023/03/20 05:01:11;;;;;;;22.05;6.57;;;10.20;99.90;;;;;;5031019;28;20033;-76
2023/03/20 05:03:38;;;;;;;15.57;6.63;;;10.20;99.90;;;;;;5031725;28;20029;-76
2023/03/20 05:06:05;;;;;;;17.98;7.35;;;10.30;99.90;;;;;;5029686;28;20052;-76
2023/03/20 05:08:31;;;;;;;15.10;7.00;;;10.20;99.90;;;;;;5031501;28;20045;-76
2023/03/20 05:10:57;;;;;;;21.35;7.55;;;10.30;99.90;;;;;;5031434;28;20450;-76
2023/03/20 05:13:23;;;;;;;15.30;7.45;;;10.30;99.90;;;;;;5018983;28;20386;-77
2023/03/20 05:15:49;;;;;;;13.57;7.75;;;10.20;99.90;;;;;;5013916;28;20038;-76
2023/03/20 05:18:15;;;;;;;15.95;7.30;;;10.10;99.90;;;;;;5015198;28;20030;-76
2023/03/20 05:20:41;;;;;;;21.00;7.63;;;10.10;99.90;;;;;;5014866;28;20044;-76
2023/03/20 05:23:07;;;;;;;18.48;7.53;;;10.00;99.90;;;;;;5013819;28;20057;-76
2023/03/20 05:25:34;;;;;;;15.90;7.40;;;10.00;99.90;;;;;;5015211;28;20386;-76
2023/03/20 05:28:00;;;;;;;14.63;7.75;;;10.10;99.90;;;;;;5013774;28;20041;-77
2023/03/20 05:30:26;;;;;;;20.92;7.47;;;10.10;99.90;;;;;;5024152;28;20033;-76
2023/03/20 05:32:52;;;;;;;15.35;7.32;;;10.10;99.90;;;;;;5034802;28;20025;-76
2023/03/20 05:35:18;;;;;;;15.57;6.93;;;10.10;99.90;;;;;;5034304;28;20459;-76
2023/03/20 05:37:45;;;;;;;16.75;7.07;;;10.10;99.90;;;;;;5033617;28;20033;-76
2023/03/20 05:40:12;;;;;;;17.92;7.22;;;10.10;99.90;;;;;;5034657;28;20034;-77
2023/03/20 05:42:38;;;;;;;21.92;8.57;;;10.10;99.90;;;;;;5034625;28;20037;-77
2023/03/20 05:45:05;;;;;;;16.27;7.68;;;10.10;99.90;;;;;;5034373;28;20393;-76
2023/03/20 05:47:31;;;;;;;18.58;7.38;;;10.10;99.90;;;;;;5034476;28;20045;-77
2023/03/20 05:49:57;;;;;;;14.15;7.65;;;10.20;99.90;;;;;;5034113;28;20029;-77
2023/03/20 05:52:23;;;;;;;17.35;7.35;;;10.20;99.90;;;;;;5033376;28;20041;-77
2023/03/20 05:54:49;;;;;;;19.45;7.43;;;10.20;99.90;;;;;;5033264;28;20041;-77
2023/03/20 05:57:16;;;;;;;17.75;7.47;;;10.20;99.90;;;;;;5034139;28;20036;-77
2023/03/20 05:59:43;;;;;;;13.98;7.45;;;10.20;99.90;;;;;;5034376;28;20478;-77
2023/03/20 06:02:09;;;;;;;13.02;7.18;;;10.20;99.90;;;;;;5033887;28;20052;-77
2023/03/20 06:04:36;;;;;;;13.85;7.85;;;10.10;99.90;;;;;;5033884;28;20025;-77
2023/03/20 06:07:03;;;;;;;22.42;7.55;;;10.10;99.90;;;;;;5033037;28;20037;-77
2023/03/20 06:09:29;;;;;;;12.80;6.95;;;10.00;99.90;;;;;;5034440;28;20042;-77
2023/03/20 06:11:55;;;;;;;14.10;6.85;;;10.00;99.90;;;;;;5029029;28;20018;-77
2023/03/20 06:14:21;;;;;;;19.88;7.63;;;10.00;99.90;;;;;;5014320;28;20057;-77
2023/03/20 06:16:47;;;;;;;15.57;7.45;;;10.00;99.90;;;;;;5013652;28;20486;-77
2023/03/20 06:19:13;;;;;;;19.65;7.65;;;10.00;99.90;;;;;;5013748;28;20026;-77
2023/03/20 06:21:39;;;;;;;19.05;6.78;;;10.00;99.90;;;;;;5012671;28;20050;-77
2023/03/20 06:24:06;;;;;;;21.45;7.20;;;10.10;99.90;;;;;;5013318;28;20034;-77
2023/03/20 06:26:32;;;;;;;15.35;6.90;;;10.10;99.90;;;;;;5013956;28;20037;-77
2023/03/20 06:28:58;;;;;;;15.88;6.95;;;10.10;99.90;;;;;;5014082;28;20037;-77
2023/03/20 06:31:24;;;;;;;15.80;6.68;;;10.00;99.90;;;;;;5030848;28;20370;-76
2023/03/20 06:33:51;;;;;;;21.35;7.43;;;10.00;99.90;;;;;;5033313;28;20029;-77
2023/03/20 06:36:17;;;;;;;15.38;7.57;;;10.10;99.90;;;;;;5032191;28;20045;-77
2023/03/20 06:38:43;;;;;;;14.40;7.47;;;10.00;99.90;;;;;;5033586;28;20041;-77
2023/03/20 06:41:10;;;;;;;15.57;6.88;;;10.10;99.90;;;;;;5033454;28;20044;-77
2023/03/20 06:43:36;;;;;;;14.75;7.25;;;10.10;99.90;;;;;;5033328;28;20045;-77
2023/03/20 06:46:02;;;;;;;17.40;6.85;;;10.10;99.90;;;;;;5015302;28;20040;-76
2023/03/20 06:48:28;;;;;;;15.80;6.93;;;10.10;99.90;;;;;;5033041;28;20034;-76
2023/03/20 06:50:55;;;;;;;12.98;7.13;;;10.10;99.90;;;;;;5033210;28;20036;-76
2023/03/20 06:53:21;;;;;;;13.77;6.72;;;10.10;99.90;;;;;;5033411;28;20034;-76
2023/03/20 06:55:48;;;;;;;20.67;7.28;;;10.10;99.90;;;;;;5033808;28;20041;-76
2023/03/20 06:58:14;;;;;;;17.88;7.50;;;10.10;99.90;;;;;;5031725;28;20037;-76
2023/03/20 07:00:41;;;;;;;14.30;7.05;;;10.10;99.90;;;;;;5032899;28;20040;-76
2023/03/20 07:03:07;;;;;;;14.05;7.07;;;10.10;99.90;;;;;;5031645;28;20053;-76
2023/03/20 07:05:34;;;;;;;15.73;7.13;;;10.10;99.90;;;;;;5033466;28;20033;-76
2023/03/20 07:08:00;;;;;;;17.58;7.10;;;10.10;99.90;;;;;;5033393;28;20041;-76
2023/03/20 07:10:27;;;;;;;12.32;5.95;;;10.30;99.90;;;;;;5032850;28;20052;-78
2023/03/20 07:12:53;;;;;;;16.52;6.30;;;10.40;99.90;;;;;;5019962;28;20030;-77
2023/03/20 07:15:20;;;;;;;17.48;7.40;;;10.40;99.90;;;;;;5012923;28;20049;-77
2023/03/20 07:17:46;;;;;;;16.00;6.10;;;10.60;99.90;;;;;;5011551;28;20038;-78
2023/03/20 07:20:12;;;;;;;13.55;5.88;;;10.80;99.90;;;;;;5013113;28;20026;-77
2023/03/20 07:22:40;;;;;;;15.38;6.75;;;11.00;99.90;;;;;;5011486;28;20050;-77
2023/03/20 07:25:08;;;;;;;11.95;5.43;;;11.30;99.90;;;;;;4995697;28;20029;-77
2023/03/20 07:27:35;;;;;;;15.65;5.82;;;11.50;99.90;;;;;;5011728;28;20387;-78
2023/03/20 07:30:01;;;;;;;15.07;5.80;;;11.70;99.90;;;;;;5018881;28;20032;-78
2023/03/20 07:32:27;;;;;;;14.45;5.22;;;11.90;99.90;;;;;;5031574;28;20041;-79
2023/03/20 07:34:53;;;;;;;9.43;5.32;;;12.10;99.90;;;;;;5031569;28;20044;-79
2023/03/20 07:37:19;;;;;;;18.95;5.60;;;12.20;99.90;;;;;;5032301;28;20037;-79
2023/03/20 07:39:46;;;;;;;10.38;4.95;;;12.40;99.90;;;;;;5031408;28;20033;-79
2023/03/20 07:42:12;;;;;;;16.83;5.68;;;12.50;99.90;;;;;;5032390;28;20026;-78
2023/03/20 07:44:38;;;;;;;14.23;5.55;;;12.60;99.90;;;;;;5032498;28;20030;-78
2023/03/20 07:47:06;;;;;;;12.18;5.80;;;12.40;99.90;;;;;;5031577;28;20037;-78
2023/03/20 07:49:32;;;;;;;13.30;5.65;;;12.40;99.90;;;;;;5031226;28;20052;-78
2023/03/20 07:51:58;;;;;;;15.82;5.75;;;12.20;99.90;;;;;;5032592;28;20030;-78
2023/03/20 07:54:24;;;;;;;10.60;5.28;;;12.20;99.90;;;;;;5032397;28;20060;-78
2023/03/20 07:56:51;;;;;;;17.60;5.65;;;12.20;99.90;;;;;;5030802;28;20044;-78
2023/03/20 07:59:17;;;;;;;11.57;5.53;;;12.10;99.90;;;;;;5030928;28;20052;-78
2023/03/20 08:01:44;;;;;;;17.38;5.80;;;12.10;99.90;;;;;;5030430;28;20057;-78
2023/03/20 08:04:10;;;;;;;13.02;5.65;;;12.20;99.90;;;;;;5032300;28;20395;-78
2023/03/20 08:06:38;;;;;;;18.38;6.07;;;12.20;99.90;;;;;;5031181;28;20046;-79
2023/03/20 08:09:04;;;;;;;13.40;5.57;;;12.30;99.90;;;;;;5032465;28;20402;-79
2023/03/20 08:11:31;;;;;;;14.77;6.55;;;12.40;99.90;;;;;;5031531;28;20037;-79
2023/03/20 08:13:57;;;;;;;12.88;5.70;;;12.50;99.90;;;;;;5012497;28;20042;-79
2023/03/20 08:16:24;;;;;;;12.30;5.70;;;12.50;99.90;;;;;;5011754;28;20052;-78
2023/03/20 08:18:52;;;;;;;12.48;5.40;;;12.70;99.90;;;;;;5012303;28;20029;-79
2023/03/20 08:21:18;;;;;;;12.23;5.13;;;12.80;99.90;;;;;;5012025;28;20058;-79
2023/03/20 08:23:44;;;;;;;9.95;5.40;;;12.80;99.90;;;;;;5010973;28;20053;-79
2023/03/20 08:26:11;;;;;;;11.68;5.30;;;12.90;99.90;;;;;;5012303;28;20478;-79
2023/03/20 08:28:37;;;;;;;10.32;4.80;;;13.00;99.90;;;;;;5012261;28;20037;-79
2023/03/20 08:31:07;;;;;;;19.38;6.05;;;13.00;99.90;;;;;;5026161;28;20478;-78
2023/03/20 08:33:33;;;;;;;15.47;5.57;;;13.00;99.90;;;;;;5030751;28;20044;-79
2023/03/20 08:35:59;;;;;;;12.00;5.75;;;13.20;99.90;;;;;;5030422;28;20398;-79
2023/03/20 08:38:25;;;;;;;11.65;5.32;;;13.40;99.90;;;;;;5031929;28;20037;-79
2023/03/20 08:40:53;;;;;;;12.95;5.22;;;13.60;99.90;;;;;;5030635;28;20100;-79
2023/03/20 08:43:19;;;;;;;11.30;4.78;;;13.70;99.90;;;;;;5032133;28;20053;-80
2023/03/20 08:45:45;;;;;;;10.88;5.65;;;13.90;99.90;;;;;;5031000;28;20037;-78
2023/03/20 08:48:12;;;;;;;12.82;4.55;;;14.20;99.90;;;;;;5034362;28;20497;-77
2023/03/20 08:50:38;;;;;;;11.35;4.97;;;14.50;99.90;;;;;;5035586;28;20029;-77
2023/03/20 08:53:04;;;;;;;9.73;4.18;;;14.70;99.90;;;;;;5018154;28;20037;-77
2023/03/20 08:55:31;;;;;;;15.73;5.03;;;15.10;99.90;;;;;;5035471;28;20025;-77
2023/03/20 08:57:57;;;;;;;9.43;4.47;;;15.30;99.90;;;;;;5033861;28;20060;-77
2023/03/20 09:00:23;;;;;;;17.77;5.13;;;15.60;99.90;;;;;;5033713;28;20052;-77
2023/03/20 09:02:50;;;;;;;16.35;4.25;;;15.70;99.90;;;;;;5034224;28;20413;-77
2023/03/20 09:05:16;;;;;;;10.50;4.57;;;15.80;99.90;;;;;;5035414;28;20041;-77
2023/03/20 09:07:42;;;;;;;10.95;4.95;;;16.00;99.90;;;;;;5035286;28;20037;-77
2023/03/20 09:10:09;;;;;;;14.90;4.88;;;16.10;99.90;;;;;;5035250;28;20037;-78
2023/03/20 09:12:35;;;;;;;14.07;5.45;;;16.40;99.90;;;;;;5024155;28;20053;-77
2023/03/20 09:15:02;;;;;;;10.40;4.43;;;16.50;99.90;;;;;;5014206;28;20037;-77
2023/03/20 09:17:28;;;;;;;12.70;4.80;;;16.40;99.90;;;;;;5013279;28;20033;-77
2023/03/20 09:19:54;;;;;;;12.52;5.15;;;16.40;99.90;;;;;;5014235;28;20594;-77
2023/03/20 09:22:20;;;;;;;15.13;5.15;;;16.30;99.90;;;;;;5013870;28;20384;-77
2023/03/20 09:24:46;;;;;;;9.88;4.75;;;16.10;99.90;;;;;;5015159;28;20053;-77
2023/03/20 09:27:12;;;;;;;10.00;4.50;;;15.90;99.90;;;;;;5013565;28;20048;-77
2023/03/20 09:29:40;;;;;;;10.20;4.70;;;15.80;99.90;;;;;;5016438;28;20041;-78
2023/03/20 09:32:06;;;;;;;10.90;4.63;;;15.70;99.90;;;;;;5034332;28;20045;-77
2023/03/20 09:34:32;;;;;;;12.38;4.65;;;15.60;99.90;;;;;;5034999;28;20045;-77
2023/03/20 09:37:01;;;;;;;13.13;5.05;;;15.60;99.90;;;;;;5034542;28;20041;-77
2023/03/20 09:39:28;;;;;;;11.20;5.07;;;15.50;99.90;;;;;;5033448;28;20072;-77
2023/03/20 09:41:54;;;;;;;12.32;3.90;;;15.50;99.90;;;;;;5034101;28;20034;-77
2023/03/20 09:44:41;;;;;;;12.25;4.22;;;15.30;99.90;;;;;;5016781;28;20041;-77
2023/03/20 09:47:29;;;;;;;12.00;4.60;;;15.30;99.90;;;;;;5032987;28;20040;-77
2023/03/20 09:50:21;;;;;;;13.02;4.75;;;15.30;99.90;;;;;;5034384;28;20034;-77
2023/03/20 09:52:57;;;;;;;10.75;4.32;;;15.50;99.90;;;;;;5033009;28;20405;-77
2023/03/20 09:55:34;;;;;;;18.25;4.75;;;15.50;99.90;;;;;;5016603;28;20030;-78
2023/03/20 09:58:22;;;;;;;12.43;4.63;;;15.50;99.90;;;;;;5031753;28;20021;-78
2023/03/20 10:00:48;;;;;;;10.80;4.45;;;15.40;99.90;;;;;;5032924;28;20521;-78
2023/03/20 10:03:42;;;;;;;10.82;4.68;;;15.50;99.90;;;;;;5034136;28;20052;-78
2023/03/20 10:06:12;;;;;;;10.18;4.18;;;15.50;99.90;;;;;;5030256;28;20041;-78
2023/03/20 10:08:38;;;;;;;13.15;4.32;;;15.50;99.90;;;;;;5016559;28;20036;-78
2023/03/20 10:11:21;;;;;;;11.00;4.57;;;15.40;99.90;;;;;;5033908;28;20386;-78
2023/03/20 10:14:08;;;;;;;13.00;4.55;;;15.40;99.90;;;;;;5015166;28;20029;-78
2023/03/20 10:16:47;;;;;;;12.93;4.50;;;15.60;99.90;;;;;;5012598;28;20030;-78
2023/03/20 10:19:38;;;;;;;13.60;4.30;;;15.60;99.90;;;;;;5012909;28;20041;-78
2023/03/20 10:22:24;;;;;;;11.65;4.30;;;15.60;99.90;;;;;;5014132;28;20049;-78
2023/03/20 10:25:23;;;;;;;11.35;4.20;;;15.50;99.90;;;;;;5013789;28;20041;-77
2023/03/20 10:27:59;;;;;;;13.45;4.88;;;15.50;99.90;;;;;;5012140;28;20049;-76
2023/03/20 10:30:40;;;;;;;13.35;4.30;;;15.50;99.90;;;;;;5021728;28;20458;-76
2023/03/20 10:33:15;;;;;;;11.77;4.03;;;15.60;99.90;;;;;;5033785;28;20036;-76
2023/03/20 10:35:49;;;;;;;8.27;4.28;;;15.70;99.90;;;;;;5033759;28;20026;-77
2023/03/20 10:38:49;;;;;;;9.38;3.75;;;15.80;99.90;;;;;;5016646;28;20045;-77
2023/03/20 10:41:17;;;;;;;10.73;4.50;;;15.80;99.90;;;;;;5033919;28;20446;-77
2023/03/20 10:43:44;;;;;;;12.43;4.65;;;15.80;99.90;;;;;;5016201;28;20037;-77
2023/03/20 10:46:14;;;;;;;6.72;4.00;;;15.90;99.90;;;;;;5015501;28;20383;-76
2023/03/20 10:48:51;;;;;;;12.57;5.40;;;15.90;99.90;;;;;;5032137;28;20025;-77
2023/03/20 10:51:19;;;;;;;10.55;4.78;;;16.00;99.90;;;;;;5032016;28;20025;-76
2023/03/20 10:53:51;;;;;;;12.57;4.68;;;16.20;99.90;;;;;;5033673;28;20042;-77
2023/03/20 10:56:39;;;;;;;13.88;5.10;;;16.20;99.90;;;;;;5032001;28;20024;-76
2023/03/20 10:59:27;;;;;;;16.10;5.35;;;16.20;99.90;;;;;;5032159;28;20024;-77
2023/03/20 11:01:53;;;;;;;13.30;5.07;;;16.20;99.90;;;;;;5031451;28;20390;-76
2023/03/20 11:04:20;;;;;;;13.23;4.80;;;16.00;99.90;;;;;;5031904;28;20041;-76
2023/03/20 11:06:54;;;;;;;13.32;5.82;;;16.00;99.90;;;;;;5031900;28;20041;-77
2023/03/20 11:09:21;;;;;;;14.48;4.93;;;16.20;99.90;;;;;;5032405;28;20017;-76
2023/03/20 11:11:50;;;;;;;15.95;5.53;;;16.20;99.90;;;;;;5012557;28;20483;-77
2023/03/20 11:14:21;;;;;;;11.98;4.10;;;16.20;99.90;;;;;;5013290;28;20022;-76
2023/03/20 11:16:51;;;;;;;12.07;5.07;;;16.20;99.90;;;;;;5012762;28;20038;-77
2023/03/20 11:19:18;;;;;;;9.48;4.70;;;16.20;99.90;;;;;;5028881;28;20363;-77
2023/03/20 11:21:56;;;;;;;15.80;4.78;;;16.30;99.90;;;;;;5011869;28;20049;-76
2023/03/20 11:24:40;;;;;;;12.48;4.47;;;16.30;99.90;;;;;;5012602;28;20049;-76
2023/03/20 11:27:17;;;;;;;8.52;4.90;;;16.40;99.90;;;;;;4995422;28;20049;-77
2023/03/20 11:29:45;;;;;;;12.80;5.32;;;16.60;99.90;;;;;;5016361;28;20013;-76
2023/03/20 11:32:40;;;;;;;11.25;4.97;;;16.60;99.90;;;;;;5030922;28;20042;-77
2023/03/20 11:35:17;;;;;;;11.43;4.95;;;16.70;99.90;;;;;;5030999;28;20041;-77
2023/03/20 11:37:45;;;;;;;15.88;4.88;;;16.80;99.90;;;;;;5032108;28;20048;-77
2023/03/20 11:40:21;;;;;;;9.45;4.32;;;17.00;99.90;;;;;;5031362;28;20037;-77
2023/03/20 11:43:00;;;;;;;12.20;4.95;;;17.30;99.90;;;;;;5031223;28;20032;-77
2023/03/20 11:45:26;;;;;;;9.25;5.18;;;17.40;99.90;;;;;;5032047;28;20029;-77
2023/03/20 11:47:54;;;;;;;10.52;4.85;;;17.40;99.90;;;;;;5014944;28;20037;-76
2023/03/20 11:50:42;;;;;;;11.45;5.43;;;17.60;99.90;;;;;;5031009;28;20046;-76
2023/03/20 11:53:23;;;;;;;10.60;5.88;;;17.70;99.90;;;;;;5030830;28;20496;-76
2023/03/20 11:56:06;;;;;;;13.45;5.53;;;17.80;99.90;;;;;;5031263;28;20065;-76
2023/03/20 11:58:32;;;;;;;13.82;6.10;;;17.90;99.90;;;;;;5032313;28;20112;-76
2023/03/20 12:00:59;;;;;;;14.15;6.40;;;17.80;99.90;;;;;;5030651;28;20033;-76
2023/03/20 12:03:36;;;;;;;11.38;6.38;;;17.80;99.90;;;;;;5014601;28;20033;-76
2023/03/20 12:06:05;;;;;;;9.98;5.25;;;18.00;99.90;;;;;;5032203;28;20033;-76
2023/03/20 12:08:31;;;;;;;10.32;5.53;;;18.10;99.90;;;;;;5030695;28;20024;-76
2023/03/20 12:11:07;;;;;;;13.23;6.10;;;18.30;99.90;;;;;;5031267;28;20389;-76
2023/03/20 12:13:36;;;;;;;10.60;5.43;;;17.90;99.90;;;;;;4998208;28;20052;-77
2023/03/20 12:16:10;;;;;;;11.23;6.13;;;17.90;99.90;;;;;;5027439;28;20041;-76
2023/03/20 12:18:39;;;;;;;11.43;5.28;;;18.00;99.90;;;;;;5012244;28;20352;-77
2023/03/20 12:21:37;;;;;;;12.65;6.47;;;17.80;99.90;;;;;;5013620;28;20046;-76
2023/03/20 12:24:26;;;;;;;10.40;6.20;;;17.80;99.90;;;;;;5015042;28;20483;-76
2023/03/20 12:27:16;;;;;;;15.00;5.80;;;18.00;99.90;;;;;;4999223;28;20486;-76
2023/03/20 12:29:59;;;;;;;10.93;5.43;;;18.20;99.90;;;;;;5018210;28;20045;-76
2023/03/20 12:32:35;;;;;;;13.30;6.40;;;18.20;99.90;;;;;;5019007;28;20042;-76
2023/03/20 12:35:20;;;;;;;10.27;6.13;;;18.20;99.90;;;;;;5034847;28;20393;-76
2023/03/20 12:37:46;;;;;;;9.63;6.47;;;18.40;99.90;;;;;;5034771;28;20577;-76
2023/03/20 12:40:15;;;;;;;11.27;6.47;;;18.50;99.90;;;;;;5035865;28;20029;-76
2023/03/20 12:43:02;;;;;;;10.98;6.38;;;18.40;99.90;;;;;;5034698;28;20025;-77
2023/03/20 12:45:40;;;;;;;12.15;6.28;;;18.40;99.90;;;;;;5035341;28;20045;-76
2023/03/20 12:48:15;;;;;;;7.32;6.38;;;18.70;99.90;;;;;;5036071;28;20049;-76
2023/03/20 12:51:00;;;;;;;13.55;6.18;;;18.90;99.90;;;;;;5035390;28;20025;-76
2023/03/20 12:53:35;;;;;;;9.63;5.88;;;18.90;99.90;;;;;;5020452;28;20033;-76